sensor_id;sensor_type;location;lat;lon;timestamp;P1;durP1;ratioP1;P2;durP2;ratioP2
70985;SDS011;58645;43.068;25.610;2022-09-03T00:00:08;4.25;;;2.65;;
70985;SDS011;58645;43.068;25.610;2022-09-03T00:02:43;4.72;;;1.92;;
70985;SDS011;58645;43.068;25.610;2022-09-03T00:05:28;1.80;;;1.40;;
70985;SDS011;58645;43.068;25.610;2022-09-03T00:13:44;1.38;;;0.80;;
70985;SDS011;58645;43.068;25.610;2022-09-03T00:16:14;2.47;;;0.70;;
70985;SDS011;58645;43.068;25.610;2022-09-03T00:18:46;1.80;;;0.82;;
70985;SDS011;58645;43.068;25.610;2022-09-03T00:21:32;2.08;;;0.90;;
70985;SDS011;58645;43.068;25.610;2022-09-03T00:24:09;1.35;;;0.80;;
70985;SDS011;58645;43.068;25.610;2022-09-03T00:26:38;1.75;;;0.50;;
70985;SDS011;58645;43.068;25.610;2022-09-03T00:31:47;6.18;;;0.80;;
70985;SDS011;58645;43.068;25.610;2022-09-03T00:34:28;1.35;;;0.73;;
70985;SDS011;58645;43.068;25.610;2022-09-03T00:37:05;6.28;;;0.77;;
70985;SDS011;58645;43.068;25.610;2022-09-03T00:39:32;1.40;;;1.00;;
70985;SDS011;58645;43.068;25.610;2022-09-03T00:42:04;2.05;;;0.70;;
70985;SDS011;58645;43.068;25.610;2022-09-03T00:48:01;0.80;;;0.52;;
70985;SDS011;58645;43.068;25.610;2022-09-03T00:53:33;1.08;;;0.47;;
70985;SDS011;58645;43.068;25.610;2022-09-03T00:56:08;3.17;;;0.88;;
70985;SDS011;58645;43.068;25.610;2022-09-03T00:58:59;1.63;;;0.45;;
70985;SDS011;58645;43.068;25.610;2022-09-03T01:12:45;2.40;;;0.40;;
70985;SDS011;58645;43.068;25.610;2022-09-03T01:34:12;1.95;;;0.75;;
70985;SDS011;58645;43.068;25.610;2022-09-03T01:36:54;0.75;;;0.50;;
70985;SDS011;58645;43.068;25.610;2022-09-03T01:45:45;1.00;;;0.50;;
70985;SDS011;58645;43.068;25.610;2022-09-03T01:48:48;1.35;;;0.70;;
70985;SDS011;58645;43.068;25.610;2022-09-03T01:51:28;1.05;;;0.52;;
70985;SDS011;58645;43.068;25.610;2022-09-03T02:02:16;1.30;;;0.50;;
70985;SDS011;58645;43.068;25.610;2022-09-03T02:05:05;1.00;;;0.50;;
70985;SDS011;58645;43.068;25.610;2022-09-03T02:07:41;2.03;;;0.60;;
70985;SDS011;58645;43.068;25.610;2022-09-03T02:10:43;0.80;;;0.50;;
70985;SDS011;58645;43.068;25.610;2022-09-03T02:13:17;2.10;;;0.60;;
70985;SDS011;58645;43.068;25.610;2022-09-03T02:15:51;1.30;;;0.90;;
70985;SDS011;58645;43.068;25.610;2022-09-03T02:18:24;2.58;;;0.50;;
70985;SDS011;58645;43.068;25.610;2022-09-03T02:20:54;1.60;;;0.65;;
70985;SDS011;58645;43.068;25.610;2022-09-03T02:23:21;0.88;;;0.40;;
70985;SDS011;58645;43.068;25.610;2022-09-03T02:25:49;1.95;;;0.70;;
70985;SDS011;58645;43.068;25.610;2022-09-03T02:28:19;1.55;;;0.50;;
70985;SDS011;58645;43.068;25.610;2022-09-03T02:30:44;1.23;;;0.63;;
70985;SDS011;58645;43.068;25.610;2022-09-03T02:33:11;3.85;;;0.80;;
70985;SDS011;58645;43.068;25.610;2022-09-03T02:35:38;1.80;;;0.75;;
70985;SDS011;58645;43.068;25.610;2022-09-03T02:38:08;1.23;;;0.73;;
70985;SDS011;58645;43.068;25.610;2022-09-03T02:40:35;3.70;;;0.70;;
70985;SDS011;58645;43.068;25.610;2022-09-03T02:43:02;1.73;;;1.27;;
70985;SDS011;58645;43.068;25.610;2022-09-03T02:45:29;2.53;;;0.90;;
70985;SDS011;58645;43.068;25.610;2022-09-03T02:47:56;0.60;;;0.43;;
70985;SDS011;58645;43.068;25.610;2022-09-03T02:50:24;1.83;;;0.70;;
70985;SDS011;58645;43.068;25.610;2022-09-03T02:52:51;2.05;;;0.90;;
70985;SDS011;58645;43.068;25.610;2022-09-03T02:55:17;6.30;;;0.70;;
70985;SDS011;58645;43.068;25.610;2022-09-03T02:57:44;1.67;;;0.50;;
70985;SDS011;58645;43.068;25.610;2022-09-03T03:00:10;0.90;;;0.60;;
70985;SDS011;58645;43.068;25.610;2022-09-03T03:02:36;0.65;;;0.43;;
70985;SDS011;58645;43.068;25.610;2022-09-03T03:05:03;2.00;;;0.80;;
70985;SDS011;58645;43.068;25.610;2022-09-03T03:07:34;1.10;;;0.50;;
70985;SDS011;58645;43.068;25.610;2022-09-03T03:10:03;1.10;;;0.50;;
70985;SDS011;58645;43.068;25.610;2022-09-03T03:12:29;0.68;;;0.55;;
70985;SDS011;58645;43.068;25.610;2022-09-03T03:14:55;2.63;;;0.40;;
70985;SDS011;58645;43.068;25.610;2022-09-03T03:17:21;0.90;;;0.35;;
70985;SDS011;58645;43.068;25.610;2022-09-03T03:19:47;0.85;;;0.63;;
70985;SDS011;58645;43.068;25.610;2022-09-03T03:22:13;1.60;;;0.90;;
70985;SDS011;58645;43.068;25.610;2022-09-03T03:24:39;1.67;;;0.40;;
70985;SDS011;58645;43.068;25.610;2022-09-03T03:27:04;0.68;;;0.43;;
70985;SDS011;58645;43.068;25.610;2022-09-03T03:29:31;0.70;;;0.40;;
70985;SDS011;58645;43.068;25.610;2022-09-03T03:31:58;0.63;;;0.60;;
70985;SDS011;58645;43.068;25.610;2022-09-03T03:34:23;1.05;;;0.50;;
70985;SDS011;58645;43.068;25.610;2022-09-03T03:36:49;1.25;;;0.47;;
70985;SDS011;58645;43.068;25.610;2022-09-03T03:39:15;1.30;;;0.70;;
70985;SDS011;58645;43.068;25.610;2022-09-03T03:41:40;0.60;;;0.43;;
70985;SDS011;58645;43.068;25.610;2022-09-03T03:44:06;3.53;;;0.50;;
70985;SDS011;58645;43.068;25.610;2022-09-03T03:46:36;0.50;;;0.40;;
70985;SDS011;58645;43.068;25.610;2022-09-03T03:49:03;0.75;;;0.50;;
70985;SDS011;58645;43.068;25.610;2022-09-03T03:51:33;1.23;;;1.13;;
70985;SDS011;58645;43.068;25.610;2022-09-03T03:54:00;1.25;;;0.73;;
70985;SDS011;58645;43.068;25.610;2022-09-03T03:58:53;0.80;;;0.40;;
70985;SDS011;58645;43.068;25.610;2022-09-03T04:01:20;0.80;;;0.63;;
70985;SDS011;58645;43.068;25.610;2022-09-03T04:03:48;1.10;;;0.70;;
70985;SDS011;58645;43.068;25.610;2022-09-03T04:06:15;0.75;;;0.60;;
70985;SDS011;58645;43.068;25.610;2022-09-03T04:08:44;2.28;;;0.50;;
70985;SDS011;58645;43.068;25.610;2022-09-03T04:11:11;0.82;;;0.50;;
70985;SDS011;58645;43.068;25.610;2022-09-03T04:13:41;1.15;;;0.52;;
70985;SDS011;58645;43.068;25.610;2022-09-03T04:16:12;2.20;;;0.70;;
70985;SDS011;58645;43.068;25.610;2022-09-03T04:18:40;1.55;;;0.82;;
70985;SDS011;58645;43.068;25.610;2022-09-03T04:21:07;6.38;;;1.42;;
70985;SDS011;58645;43.068;25.610;2022-09-03T04:23:39;1.63;;;0.60;;
70985;SDS011;58645;43.068;25.610;2022-09-03T04:26:06;2.00;;;0.80;;
70985;SDS011;58645;43.068;25.610;2022-09-03T04:28:34;1.13;;;0.63;;
70985;SDS011;58645;43.068;25.610;2022-09-03T04:31:04;1.33;;;0.73;;
70985;SDS011;58645;43.068;25.610;2022-09-03T04:33:31;1.98;;;0.77;;
70985;SDS011;58645;43.068;25.610;2022-09-03T04:36:17;1.73;;;0.65;;
70985;SDS011;58645;43.068;25.610;2022-09-03T04:38:45;1.42;;;0.70;;
70985;SDS011;58645;43.068;25.610;2022-09-03T04:41:14;1.25;;;0.90;;
70985;SDS011;58645;43.068;25.610;2022-09-03T04:43:41;2.45;;;0.68;;
70985;SDS011;58645;43.068;25.610;2022-09-03T04:46:08;1.33;;;0.77;;
70985;SDS011;58645;43.068;25.610;2022-09-03T04:48:36;1.75;;;0.57;;
70985;SDS011;58645;43.068;25.610;2022-09-03T04:51:12;2.28;;;1.00;;
70985;SDS011;58645;43.068;25.610;2022-09-03T04:53:41;0.70;;;0.47;;
70985;SDS011;58645;43.068;25.610;2022-09-03T04:56:19;3.28;;;1.13;;
70985;SDS011;58645;43.068;25.610;2022-09-03T04:58:47;1.10;;;1.00;;
70985;SDS011;58645;43.068;25.610;2022-09-03T05:01:17;3.33;;;0.90;;
70985;SDS011;58645;43.068;25.610;2022-09-03T05:03:45;1.70;;;0.80;;
70985;SDS011;58645;43.068;25.610;2022-09-03T05:06:11;1.63;;;0.63;;
70985;SDS011;58645;43.068;25.610;2022-09-03T05:11:04;1.80;;;0.82;;
70985;SDS011;58645;43.068;25.610;2022-09-03T05:13:32;2.80;;;1.75;;
70985;SDS011;58645;43.068;25.610;2022-09-03T05:16:06;2.55;;;1.20;;
70985;SDS011;58645;43.068;25.610;2022-09-03T05:18:33;3.47;;;1.55;;
70985;SDS011;58645;43.068;25.610;2022-09-03T05:21:03;1.63;;;1.13;;
70985;SDS011;58645;43.068;25.610;2022-09-03T05:23:40;2.20;;;1.27;;
70985;SDS011;58645;43.068;25.610;2022-09-03T05:26:11;3.88;;;1.35;;
70985;SDS011;58645;43.068;25.610;2022-09-03T05:28:42;4.57;;;1.30;;
70985;SDS011;58645;43.068;25.610;2022-09-03T05:31:09;2.45;;;1.70;;
70985;SDS011;58645;43.068;25.610;2022-09-03T05:33:37;2.03;;;1.13;;
70985;SDS011;58645;43.068;25.610;2022-09-03T05:36:06;2.72;;;2.00;;
70985;SDS011;58645;43.068;25.610;2022-09-03T05:38:34;1.90;;;1.33;;
70985;SDS011;58645;43.068;25.610;2022-09-03T05:41:01;2.67;;;1.30;;
70985;SDS011;58645;43.068;25.610;2022-09-03T05:43:29;2.28;;;1.40;;
70985;SDS011;58645;43.068;25.610;2022-09-03T05:45:59;2.35;;;1.58;;
70985;SDS011;58645;43.068;25.610;2022-09-03T05:48:30;2.75;;;1.48;;
70985;SDS011;58645;43.068;25.610;2022-09-03T05:51:08;3.28;;;1.45;;
70985;SDS011;58645;43.068;25.610;2022-09-03T05:53:37;2.05;;;1.50;;
70985;SDS011;58645;43.068;25.610;2022-09-03T05:56:05;3.78;;;1.60;;
70985;SDS011;58645;43.068;25.610;2022-09-03T05:58:39;2.80;;;1.60;;
70985;SDS011;58645;43.068;25.610;2022-09-03T06:01:12;3.90;;;1.40;;
70985;SDS011;58645;43.068;25.610;2022-09-03T06:03:44;2.90;;;1.80;;
70985;SDS011;58645;43.068;25.610;2022-09-03T06:06:11;2.95;;;2.13;;
70985;SDS011;58645;43.068;25.610;2022-09-03T06:08:41;3.00;;;2.13;;
70985;SDS011;58645;43.068;25.610;2022-09-03T06:11:08;4.75;;;2.22;;
70985;SDS011;58645;43.068;25.610;2022-09-03T06:13:35;4.65;;;2.38;;
70985;SDS011;58645;43.068;25.610;2022-09-03T06:16:03;4.13;;;2.50;;
70985;SDS011;58645;43.068;25.610;2022-09-03T06:18:30;3.72;;;2.53;;
70985;SDS011;58645;43.068;25.610;2022-09-03T06:23:23;4.63;;;3.10;;
70985;SDS011;58645;43.068;25.610;2022-09-03T06:26:02;4.93;;;3.08;;
70985;SDS011;58645;43.068;25.610;2022-09-03T06:28:29;4.63;;;2.97;;
70985;SDS011;58645;43.068;25.610;2022-09-03T06:30:59;5.72;;;3.80;;
70985;SDS011;58645;43.068;25.610;2022-09-03T06:33:30;5.00;;;3.55;;
70985;SDS011;58645;43.068;25.610;2022-09-03T06:35:58;5.38;;;3.30;;
70985;SDS011;58645;43.068;25.610;2022-09-03T06:38:25;6.40;;;4.10;;
70985;SDS011;58645;43.068;25.610;2022-09-03T06:40:57;6.13;;;3.88;;
70985;SDS011;58645;43.068;25.610;2022-09-03T06:43:28;9.95;;;5.07;;
70985;SDS011;58645;43.068;25.610;2022-09-03T06:45:59;6.68;;;4.38;;
70985;SDS011;58645;43.068;25.610;2022-09-03T06:48:28;6.18;;;4.20;;
70985;SDS011;58645;43.068;25.610;2022-09-03T06:50:55;6.78;;;4.57;;
70985;SDS011;58645;43.068;25.610;2022-09-03T06:53:23;8.32;;;4.15;;
70985;SDS011;58645;43.068;25.610;2022-09-03T06:55:57;7.25;;;4.10;;
70985;SDS011;58645;43.068;25.610;2022-09-03T06:58:32;8.43;;;4.82;;
70985;SDS011;58645;43.068;25.610;2022-09-03T07:03:32;5.80;;;3.90;;
70985;SDS011;58645;43.068;25.610;2022-09-03T07:06:06;8.10;;;4.68;;
70985;SDS011;58645;43.068;25.610;2022-09-03T07:08:36;9.20;;;5.03;;
70985;SDS011;58645;43.068;25.610;2022-09-03T07:11:03;7.57;;;3.83;;
70985;SDS011;58645;43.068;25.610;2022-09-03T07:13:37;5.32;;;4.10;;
70985;SDS011;58645;43.068;25.610;2022-09-03T07:16:09;5.38;;;4.18;;
70985;SDS011;58645;43.068;25.610;2022-09-03T07:18:37;6.45;;;3.92;;
70985;SDS011;58645;43.068;25.610;2022-09-03T07:23:30;5.20;;;3.33;;
70985;SDS011;58645;43.068;25.610;2022-09-03T07:26:00;7.45;;;3.35;;
70985;SDS011;58645;43.068;25.610;2022-09-03T07:28:29;5.15;;;3.30;;
70985;SDS011;58645;43.068;25.610;2022-09-03T07:31:00;5.05;;;3.70;;
70985;SDS011;58645;43.068;25.610;2022-09-03T07:33:28;6.22;;;3.45;;
70985;SDS011;58645;43.068;25.610;2022-09-03T07:35:55;5.03;;;3.30;;
70985;SDS011;58645;43.068;25.610;2022-09-03T07:38:26;5.45;;;3.58;;
70985;SDS011;58645;43.068;25.610;2022-09-03T07:40:58;4.75;;;3.50;;
70985;SDS011;58645;43.068;25.610;2022-09-03T07:43:26;8.20;;;3.55;;
70985;SDS011;58645;43.068;25.610;2022-09-03T07:45:53;5.35;;;3.63;;
70985;SDS011;58645;43.068;25.610;2022-09-03T07:48:22;4.15;;;2.55;;
70985;SDS011;58645;43.068;25.610;2022-09-03T07:50:48;4.93;;;3.80;;
70985;SDS011;58645;43.068;25.610;2022-09-03T07:53:15;4.80;;;3.88;;
70985;SDS011;58645;43.068;25.610;2022-09-03T07:55:41;4.75;;;4.25;;
70985;SDS011;58645;43.068;25.610;2022-09-03T07:58:08;5.10;;;3.20;;
70985;SDS011;58645;43.068;25.610;2022-09-03T08:00:36;5.00;;;2.75;;
70985;SDS011;58645;43.068;25.610;2022-09-03T08:03:02;4.57;;;3.58;;
70985;SDS011;58645;43.068;25.610;2022-09-03T08:05:32;4.63;;;3.15;;
70985;SDS011;58645;43.068;25.610;2022-09-03T08:08:00;4.95;;;3.50;;
70985;SDS011;58645;43.068;25.610;2022-09-03T08:10:27;4.82;;;3.70;;
70985;SDS011;58645;43.068;25.610;2022-09-03T08:12:56;6.88;;;3.58;;
70985;SDS011;58645;43.068;25.610;2022-09-03T08:15:23;4.15;;;3.15;;
70985;SDS011;58645;43.068;25.610;2022-09-03T08:17:49;4.70;;;3.30;;
70985;SDS011;58645;43.068;25.610;2022-09-03T08:20:15;4.82;;;3.85;;
70985;SDS011;58645;43.068;25.610;2022-09-03T08:22:40;3.72;;;2.90;;
70985;SDS011;58645;43.068;25.610;2022-09-03T08:25:06;4.97;;;3.50;;
70985;SDS011;58645;43.068;25.610;2022-09-03T08:27:32;6.10;;;3.10;;
70985;SDS011;58645;43.068;25.610;2022-09-03T08:29:59;4.15;;;2.97;;
70985;SDS011;58645;43.068;25.610;2022-09-03T08:32:24;6.75;;;2.92;;
70985;SDS011;58645;43.068;25.610;2022-09-03T08:34:50;4.50;;;2.95;;
70985;SDS011;58645;43.068;25.610;2022-09-03T08:37:16;5.93;;;3.17;;
70985;SDS011;58645;43.068;25.610;2022-09-03T08:42:15;4.68;;;3.05;;
70985;SDS011;58645;43.068;25.610;2022-09-03T08:49:56;8.25;;;2.75;;
70985;SDS011;58645;43.068;25.610;2022-09-03T08:52:34;4.45;;;3.15;;
70985;SDS011;58645;43.068;25.610;2022-09-03T08:55:19;6.57;;;2.63;;
70985;SDS011;58645;43.068;25.610;2022-09-03T08:57:50;3.55;;;2.67;;
70985;SDS011;58645;43.068;25.610;2022-09-03T09:22:42;3.70;;;3.03;;
70985;SDS011;58645;43.068;25.610;2022-09-03T09:25:19;5.05;;;2.60;;
70985;SDS011;58645;43.068;25.610;2022-09-03T09:27:49;5.18;;;2.90;;
70985;SDS011;58645;43.068;25.610;2022-09-03T09:30:19;4.30;;;2.55;;
70985;SDS011;58645;43.068;25.610;2022-09-03T09:32:44;4.05;;;2.72;;
70985;SDS011;58645;43.068;25.610;2022-09-03T09:35:11;6.20;;;2.75;;
70985;SDS011;58645;43.068;25.610;2022-09-03T09:37:48;4.32;;;3.08;;
70985;SDS011;58645;43.068;25.610;2022-09-03T09:40:23;3.95;;;2.90;;
70985;SDS011;58645;43.068;25.610;2022-09-03T09:43:10;4.05;;;3.00;;
70985;SDS011;58645;43.068;25.610;2022-09-03T09:45:43;5.38;;;3.95;;
70985;SDS011;58645;43.068;25.610;2022-09-03T09:48:30;3.45;;;3.10;;
70985;SDS011;58645;43.068;25.610;2022-09-03T09:51:05;4.65;;;3.90;;
70985;SDS011;58645;43.068;25.610;2022-09-03T09:53:36;3.65;;;2.75;;
70985;SDS011;58645;43.068;25.610;2022-09-03T09:56:03;4.15;;;3.40;;
70985;SDS011;58645;43.068;25.610;2022-09-03T10:01:04;4.88;;;3.25;;
70985;SDS011;58645;43.068;25.610;2022-09-03T10:03:48;3.53;;;3.03;;
70985;SDS011;58645;43.068;25.610;2022-09-03T10:06:24;4.88;;;2.80;;
70985;SDS011;58645;43.068;25.610;2022-09-03T10:09:14;4.57;;;3.70;;
70985;SDS011;58645;43.068;25.610;2022-09-03T10:11:43;4.15;;;3.55;;
70985;SDS011;58645;43.068;25.610;2022-09-03T10:19:50;9.05;;;3.72;;
70985;SDS011;58645;43.068;25.610;2022-09-03T10:25:21;5.40;;;3.95;;
70985;SDS011;58645;43.068;25.610;2022-09-03T10:27:57;4.88;;;3.67;;
70985;SDS011;58645;43.068;25.610;2022-09-03T10:30:24;5.15;;;4.03;;
70985;SDS011;58645;43.068;25.610;2022-09-03T10:33:03;4.00;;;3.42;;
70985;SDS011;58645;43.068;25.610;2022-09-03T10:35:36;4.45;;;3.83;;
70985;SDS011;58645;43.068;25.610;2022-09-03T10:48:24;6.60;;;4.10;;
70985;SDS011;58645;43.068;25.610;2022-09-03T10:51:04;8.57;;;3.58;;
70985;SDS011;58645;43.068;25.610;2022-09-03T11:12:15;5.57;;;5.07;;
70985;SDS011;58645;43.068;25.610;2022-09-03T11:14:49;6.15;;;4.10;;
70985;SDS011;58645;43.068;25.610;2022-09-03T11:17:27;4.90;;;4.05;;
70985;SDS011;58645;43.068;25.610;2022-09-03T11:23:00;5.60;;;4.07;;
70985;SDS011;58645;43.068;25.610;2022-09-03T11:25:33;6.40;;;4.22;;
70985;SDS011;58645;43.068;25.610;2022-09-03T11:28:08;5.22;;;4.22;;
70985;SDS011;58645;43.068;25.610;2022-09-03T11:33:58;5.78;;;4.65;;
70985;SDS011;58645;43.068;25.610;2022-09-03T11:36:34;5.35;;;4.28;;
70985;SDS011;58645;43.068;25.610;2022-09-03T11:41:58;7.05;;;5.88;;
70985;SDS011;58645;43.068;25.610;2022-09-03T11:44:49;6.20;;;5.10;;
70985;SDS011;58645;43.068;25.610;2022-09-03T11:49:45;8.45;;;5.32;;
70985;SDS011;58645;43.068;25.610;2022-09-03T11:52:29;6.80;;;6.10;;
70985;SDS011;58645;43.068;25.610;2022-09-03T11:55:04;6.65;;;5.93;;
70985;SDS011;58645;43.068;25.610;2022-09-03T11:57:32;6.00;;;5.05;;
70985;SDS011;58645;43.068;25.610;2022-09-03T12:00:10;7.38;;;5.90;;
70985;SDS011;58645;43.068;25.610;2022-09-03T12:02:49;6.90;;;5.53;;
70985;SDS011;58645;43.068;25.610;2022-09-03T12:05:30;7.63;;;5.80;;
70985;SDS011;58645;43.068;25.610;2022-09-03T12:08:18;9.35;;;5.93;;
70985;SDS011;58645;43.068;25.610;2022-09-03T12:19:10;7.43;;;5.38;;
70985;SDS011;58645;43.068;25.610;2022-09-03T12:21:58;8.00;;;5.70;;
70985;SDS011;58645;43.068;25.610;2022-09-03T12:24:28;8.13;;;6.38;;
70985;SDS011;58645;43.068;25.610;2022-09-03T12:26:59;7.65;;;5.90;;
70985;SDS011;58645;43.068;25.610;2022-09-03T12:29:27;7.50;;;5.13;;
70985;SDS011;58645;43.068;25.610;2022-09-03T12:31:54;7.07;;;5.15;;
70985;SDS011;58645;43.068;25.610;2022-09-03T12:34:31;6.40;;;4.57;;
70985;SDS011;58645;43.068;25.610;2022-09-03T12:36:57;7.78;;;4.75;;
70985;SDS011;58645;43.068;25.610;2022-09-03T12:39:26;6.65;;;5.65;;
70985;SDS011;58645;43.068;25.610;2022-09-03T12:41:54;6.70;;;4.53;;
70985;SDS011;58645;43.068;25.610;2022-09-03T12:44:36;6.82;;;5.50;;
70985;SDS011;58645;43.068;25.610;2022-09-03T12:49:35;5.78;;;4.28;;
70985;SDS011;58645;43.068;25.610;2022-09-03T12:52:19;7.40;;;5.43;;
70985;SDS011;58645;43.068;25.610;2022-09-03T12:57:51;7.05;;;4.80;;
70985;SDS011;58645;43.068;25.610;2022-09-03T13:00:23;6.45;;;5.18;;
70985;SDS011;58645;43.068;25.610;2022-09-03T13:02:51;6.97;;;4.97;;
70985;SDS011;58645;43.068;25.610;2022-09-03T13:05:35;7.05;;;5.50;;
70985;SDS011;58645;43.068;25.610;2022-09-03T13:08:16;5.70;;;4.85;;
70985;SDS011;58645;43.068;25.610;2022-09-03T13:10:48;6.25;;;4.22;;
70985;SDS011;58645;43.068;25.610;2022-09-03T13:13:30;6.30;;;5.10;;
70985;SDS011;58645;43.068;25.610;2022-09-03T13:18:52;5.78;;;4.20;;
70985;SDS011;58645;43.068;25.610;2022-09-03T13:21:49;5.35;;;3.85;;
70985;SDS011;58645;43.068;25.610;2022-09-03T13:32:38;6.20;;;4.38;;
70985;SDS011;58645;43.068;25.610;2022-09-03T13:41:00;7.50;;;4.30;;
70985;SDS011;58645;43.068;25.610;2022-09-03T13:43:46;6.45;;;5.18;;
70985;SDS011;58645;43.068;25.610;2022-09-03T13:46:23;5.88;;;4.22;;
70985;SDS011;58645;43.068;25.610;2022-09-03T13:49:07;8.05;;;4.80;;
70985;SDS011;58645;43.068;25.610;2022-09-03T13:51:59;7.13;;;5.00;;
70985;SDS011;58645;43.068;25.610;2022-09-03T13:54:38;8.25;;;5.35;;
70985;SDS011;58645;43.068;25.610;2022-09-03T14:00:06;9.35;;;6.30;;
70985;SDS011;58645;43.068;25.610;2022-09-03T14:02:54;10.43;;;6.88;;
70985;SDS011;58645;43.068;25.610;2022-09-03T14:05:42;9.85;;;6.13;;
70985;SDS011;58645;43.068;25.610;2022-09-03T14:14:13;7.45;;;5.28;;
70985;SDS011;58645;43.068;25.610;2022-09-03T14:16:58;9.40;;;5.88;;
70985;SDS011;58645;43.068;25.610;2022-09-03T14:19:42;10.50;;;7.00;;
70985;SDS011;58645;43.068;25.610;2022-09-03T14:25:20;9.70;;;5.75;;
70985;SDS011;58645;43.068;25.610;2022-09-03T14:27:47;6.50;;;4.35;;
70985;SDS011;58645;43.068;25.610;2022-09-03T14:30:18;8.07;;;4.82;;
70985;SDS011;58645;43.068;25.610;2022-09-03T14:38:27;7.00;;;4.72;;
70985;SDS011;58645;43.068;25.610;2022-09-03T14:40:58;6.95;;;5.07;;
70985;SDS011;58645;43.068;25.610;2022-09-03T15:01:32;5.75;;;4.22;;
70985;SDS011;58645;43.068;25.610;2022-09-03T15:09:40;7.07;;;5.47;;
70985;SDS011;58645;43.068;25.610;2022-09-03T15:20:15;5.82;;;4.30;;
70985;SDS011;58645;43.068;25.610;2022-09-03T15:34:39;7.32;;;5.22;;
70985;SDS011;58645;43.068;25.610;2022-09-03T15:39:57;8.10;;;5.22;;
70985;SDS011;58645;43.068;25.610;2022-09-03T15:42:31;8.52;;;5.38;;
70985;SDS011;58645;43.068;25.610;2022-09-03T15:45:05;10.55;;;6.30;;
70985;SDS011;58645;43.068;25.610;2022-09-03T15:55:38;12.20;;;7.07;;
70985;SDS011;58645;43.068;25.610;2022-09-03T16:04:00;11.18;;;7.05;;
70985;SDS011;58645;43.068;25.610;2022-09-03T16:15:27;13.10;;;7.22;;
70985;SDS011;58645;43.068;25.610;2022-09-03T16:18:03;12.75;;;7.53;;
70985;SDS011;58645;43.068;25.610;2022-09-03T16:20:42;14.63;;;8.15;;
70985;SDS011;58645;43.068;25.610;2022-09-03T16:23:20;15.15;;;8.23;;
70985;SDS011;58645;43.068;25.610;2022-09-03T16:26:02;15.60;;;8.05;;
70985;SDS011;58645;43.068;25.610;2022-09-03T16:28:51;16.23;;;9.90;;
70985;SDS011;58645;43.068;25.610;2022-09-03T16:56:53;14.65;;;7.63;;
70985;SDS011;58645;43.068;25.610;2022-09-03T17:18:46;14.23;;;8.27;;
70985;SDS011;58645;43.068;25.610;2022-09-03T17:21:36;16.25;;;8.23;;
70985;SDS011;58645;43.068;25.610;2022-09-03T17:24:30;12.90;;;8.35;;
70985;SDS011;58645;43.068;25.610;2022-09-03T17:30:18;19.13;;;8.77;;
70985;SDS011;58645;43.068;25.610;2022-09-03T17:35:45;15.05;;;8.35;;
70985;SDS011;58645;43.068;25.610;2022-09-03T17:40:53;17.15;;;8.23;;
70985;SDS011;58645;43.068;25.610;2022-09-03T17:46:30;13.80;;;7.57;;
70985;SDS011;58645;43.068;25.610;2022-09-03T17:49:13;14.95;;;7.82;;
70985;SDS011;58645;43.068;25.610;2022-09-03T17:59:18;16.92;;;8.25;;
70985;SDS011;58645;43.068;25.610;2022-09-03T18:02:15;13.63;;;7.93;;
70985;SDS011;58645;43.068;25.610;2022-09-03T18:04:53;14.30;;;7.80;;
70985;SDS011;58645;43.068;25.610;2022-09-03T18:07:43;15.73;;;8.27;;
70985;SDS011;58645;43.068;25.610;2022-09-03T18:16:18;15.80;;;8.07;;
70985;SDS011;58645;43.068;25.610;2022-09-03T18:18:51;15.77;;;8.48;;
70985;SDS011;58645;43.068;25.610;2022-09-03T18:21:23;15.00;;;7.93;;
70985;SDS011;58645;43.068;25.610;2022-09-03T18:24:26;16.52;;;9.15;;
70985;SDS011;58645;43.068;25.610;2022-09-03T18:30:37;18.98;;;8.77;;
70985;SDS011;58645;43.068;25.610;2022-09-03T18:33:22;19.10;;;9.75;;
70985;SDS011;58645;43.068;25.610;2022-09-03T18:36:08;16.15;;;8.65;;
70985;SDS011;58645;43.068;25.610;2022-09-03T18:45:23;14.93;;;8.60;;
70985;SDS011;58645;43.068;25.610;2022-09-03T18:48:11;19.77;;;8.95;;
70985;SDS011;58645;43.068;25.610;2022-09-03T18:57:41;17.65;;;9.05;;
70985;SDS011;58645;43.068;25.610;2022-09-03T19:00:44;15.43;;;7.95;;
70985;SDS011;58645;43.068;25.610;2022-09-03T19:07:12;21.02;;;8.55;;
70985;SDS011;58645;43.068;25.610;2022-09-03T19:10:13;16.45;;;10.15;;
70985;SDS011;58645;43.068;25.610;2022-09-03T19:16:08;14.35;;;8.18;;
70985;SDS011;58645;43.068;25.610;2022-09-03T19:19:15;14.55;;;7.53;;
70985;SDS011;58645;43.068;25.610;2022-09-03T19:22:26;19.35;;;8.35;;
70985;SDS011;58645;43.068;25.610;2022-09-03T19:25:17;13.35;;;7.85;;
70985;SDS011;58645;43.068;25.610;2022-09-03T19:28:24;13.60;;;7.90;;
70985;SDS011;58645;43.068;25.610;2022-09-03T19:37:25;14.30;;;8.60;;
70985;SDS011;58645;43.068;25.610;2022-09-03T19:40:27;11.48;;;8.35;;
70985;SDS011;58645;43.068;25.610;2022-09-03T19:43:32;15.20;;;8.02;;
70985;SDS011;58645;43.068;25.610;2022-09-03T19:52:41;12.90;;;7.65;;
70985;SDS011;58645;43.068;25.610;2022-09-03T19:55:31;13.75;;;8.63;;
70985;SDS011;58645;43.068;25.610;2022-09-03T19:58:19;13.32;;;7.60;;
70985;SDS011;58645;43.068;25.610;2022-09-03T20:01:06;12.20;;;7.78;;
70985;SDS011;58645;43.068;25.610;2022-09-03T20:03:51;14.02;;;8.13;;
70985;SDS011;58645;43.068;25.610;2022-09-03T20:06:43;13.25;;;7.80;;
70985;SDS011;58645;43.068;25.610;2022-09-03T20:09:30;13.50;;;7.78;;
70985;SDS011;58645;43.068;25.610;2022-09-03T20:12:18;14.70;;;8.18;;
70985;SDS011;58645;43.068;25.610;2022-09-03T20:14:48;12.60;;;7.10;;
70985;SDS011;58645;43.068;25.610;2022-09-03T20:20:06;10.52;;;6.43;;
70985;SDS011;58645;43.068;25.610;2022-09-03T20:22:48;9.65;;;6.68;;
70985;SDS011;58645;43.068;25.610;2022-09-03T20:34:03;11.32;;;6.57;;
70985;SDS011;58645;43.068;25.610;2022-09-03T20:37:00;10.75;;;6.30;;
70985;SDS011;58645;43.068;25.610;2022-09-03T20:45:06;10.77;;;7.05;;
70985;SDS011;58645;43.068;25.610;2022-09-03T20:55:53;12.18;;;6.85;;
70985;SDS011;58645;43.068;25.610;2022-09-03T21:01:07;10.55;;;7.15;;
70985;SDS011;58645;43.068;25.610;2022-09-03T21:03:50;10.40;;;6.75;;
70985;SDS011;58645;43.068;25.610;2022-09-03T21:06:29;10.88;;;6.70;;
70985;SDS011;58645;43.068;25.610;2022-09-03T21:14:23;14.38;;;7.88;;
70985;SDS011;58645;43.068;25.610;2022-09-03T21:25:32;13.27;;;7.57;;
70985;SDS011;58645;43.068;25.610;2022-09-03T21:28:05;11.95;;;7.65;;
70985;SDS011;58645;43.068;25.610;2022-09-03T21:30:44;13.85;;;8.32;;
70985;SDS011;58645;43.068;25.610;2022-09-03T21:33:18;17.42;;;9.07;;
70985;SDS011;58645;43.068;25.610;2022-09-03T21:35:52;13.90;;;7.90;;
70985;SDS011;58645;43.068;25.610;2022-09-03T21:38:27;15.45;;;9.20;;
70985;SDS011;58645;43.068;25.610;2022-09-03T21:41:01;13.77;;;8.05;;
70985;SDS011;58645;43.068;25.610;2022-09-03T21:43:56;15.38;;;8.25;;
70985;SDS011;58645;43.068;25.610;2022-09-03T21:49:25;14.10;;;8.40;;
70985;SDS011;58645;43.068;25.610;2022-09-03T21:54:29;13.80;;;7.93;;
70985;SDS011;58645;43.068;25.610;2022-09-03T21:57:14;14.80;;;9.65;;
70985;SDS011;58645;43.068;25.610;2022-09-03T22:00:12;13.88;;;7.95;;
70985;SDS011;58645;43.068;25.610;2022-09-03T22:02:43;13.68;;;8.73;;
70985;SDS011;58645;43.068;25.610;2022-09-03T22:05:10;13.23;;;8.15;;
70985;SDS011;58645;43.068;25.610;2022-09-03T22:10:43;16.30;;;10.77;;
70985;SDS011;58645;43.068;25.610;2022-09-03T22:16:00;13.95;;;8.43;;
70985;SDS011;58645;43.068;25.610;2022-09-03T22:18:28;16.42;;;9.82;;
70985;SDS011;58645;43.068;25.610;2022-09-03T22:40:34;21.73;;;10.30;;